Time;durP1;ratioP1;P1;durP2;ratioP2;P2;SDS_P1;SDS_P2;PMS_P1;PMS_P2;Temp;Humidity;BMP_temperature;BMP_pressure;BME280_temperature;BME280_humidity;BME280_pressure;Samples;Min_cycle;Max_cycle;Signal;HPM_P1;HPM_P2
2021/08/22 00:00:51;;;;;;;10.90;7.88;;;;;;;12.92;91.18;96484.69;6075351;23;20006;-96
2021/08/22 00:03:17;;;;;;;8.32;7.47;;;;;;;12.95;90.33;96488.47;6074607;23;20082;-96
2021/08/22 00:06:01;;;;;;;7.97;7.18;;;;;;;12.73;91.02;96467.00;6074775;23;20013;-96
2021/08/22 00:08:49;;;;;;;8.48;7.30;;;;;;;12.43;90.36;96422.66;6060674;23;20027;-96
2021/08/22 00:11:18;;;;;;;8.15;7.13;;;;;;;12.32;90.59;96410.31;6070327;23;20066;-96
2021/08/22 00:13:47;;;;;;;8.98;7.13;;;;;;;12.38;89.90;96420.56;6069672;23;20003;-96
2021/08/22 00:16:35;;;;;;;8.85;7.50;;;;;;;12.13;89.88;96381.75;6069365;23;20078;-96
2021/08/22 00:19:01;;;;;;;8.50;7.50;;;;;;;12.93;90.66;96499.81;6055615;23;20015;-96
2021/08/22 00:21:33;;;;;;;8.45;7.40;;;;;;;12.16;91.04;96390.97;6069866;23;20007;-96
2021/08/22 00:23:58;;;;;;;9.52;7.40;;;;;;;12.26;90.35;96409.47;6069470;23;20385;-96
2021/08/22 00:26:24;;;;;;;8.88;7.75;;;;;;;12.98;90.47;96512.78;6068759;23;20090;-96
2021/08/22 00:28:49;;;;;;;8.52;7.30;;;;;;;12.91;90.99;96504.25;6068564;23;20018;-96
2021/08/22 00:31:15;;;;;;;9.45;7.90;;;;;;;12.61;90.38;96468.78;6068985;23;20006;-96
2021/08/22 00:33:41;;;;;;;8.25;7.47;;;;;;;12.70;90.89;96492.47;6068782;23;20472;-96
2021/08/22 00:36:07;;;;;;;9.68;7.68;;;;;;;12.74;90.93;96487.59;6068614;23;20014;-96
2021/08/22 00:38:40;;;;;;;8.25;7.45;;;;;;;13.10;90.36;96544.50;6068793;23;20066;-96
2021/08/22 00:41:06;;;;;;;9.18;7.38;;;;;;;12.93;90.85;96523.59;6068725;23;20437;-96
2021/08/22 00:43:31;;;;;;;8.70;7.78;;;;;;;12.79;91.98;96514.94;6068433;23;20093;-96
2021/08/22 00:45:58;;;;;;;8.68;7.75;;;;;;;12.72;90.84;96487.28;6068720;23;20082;-96
2021/08/22 00:48:26;;;;;;;8.52;7.45;;;;;;;13.08;91.11;96548.91;6068582;23;20014;-96
2021/08/22 00:50:52;;;;;;;10.40;7.55;;;;;;;13.02;90.73;96534.41;6068507;23;20380;-96
2021/08/22 00:53:18;;;;;;;10.13;8.00;;;;;;;12.78;91.39;96518.13;6068634;23;20094;-96
2021/08/22 00:55:43;;;;;;;9.25;7.35;;;;;;;12.66;91.18;96503.53;6068520;23;20090;-96
2021/08/22 00:58:26;;;;;;;8.60;7.15;;;;;;;12.55;90.70;96481.56;6068591;23;20009;-96
2021/08/22 01:00:54;;;;;;;8.63;7.65;;;;;;;12.07;90.70;96425.19;6068639;23;20007;-96
2021/08/22 01:03:37;;;;;;;8.85;7.20;;;;;;;12.89;90.52;96551.06;6068189;23;20702;-96
2021/08/22 01:06:06;;;;;;;11.18;7.78;;;;;;;12.89;91.53;96548.34;6068471;23;20010;-96
2021/08/22 01:08:39;;;;;;;8.70;7.38;;;;;;;12.25;91.38;96470.59;6068446;23;20051;-95
2021/08/22 01:11:12;;;;;;;8.68;7.53;;;;;;;12.19;91.61;96464.28;6068688;23;20007;-95
2021/08/22 01:13:47;;;;;;;9.25;8.13;;;;;;;12.18;92.39;96451.13;6069935;23;20376;-96
2021/08/22 01:16:38;;;;;;;8.05;7.20;;;;;;;12.81;92.39;96552.63;6069179;23;20090;-96
2021/08/22 01:19:13;;;;;;;10.40;7.43;;;;;;;12.18;91.85;96446.44;6068512;23;20018;-96
2021/08/22 01:21:40;;;;;;;10.05;7.47;;;;;;;12.54;91.98;96510.00;6068436;23;20007;-96
2021/08/22 01:24:06;;;;;;;9.85;8.00;;;;;;;12.41;91.62;96487.72;6068264;23;20007;-96
2021/08/22 01:26:38;;;;;;;8.57;7.60;;;;;;;12.81;91.63;96555.34;6068334;23;20013;-96
2021/08/22 01:29:05;;;;;;;10.13;7.53;;;;;;;12.39;90.97;96490.16;6068428;23;20071;-96
2021/08/22 01:31:37;;;;;;;8.15;7.35;;;;;;;12.76;91.25;96554.03;6068446;23;20451;-96
2021/08/22 01:34:03;;;;;;;8.77;7.88;;;;;;;12.21;91.75;96456.41;6068634;23;20058;-96
2021/08/22 01:36:29;;;;;;;10.73;7.45;;;;;;;12.22;91.66;96465.34;6068163;23;20007;-96
2021/08/22 01:38:55;;;;;;;10.15;8.00;;;;;;;12.44;91.99;96500.41;6068294;23;20333;-96
2021/08/22 01:41:25;;;;;;;10.02;7.30;;;;;;;12.68;91.48;96539.28;6068135;23;20038;-96
2021/08/22 01:43:53;;;;;;;9.73;7.65;;;;;;;12.43;91.65;96502.38;6068147;23;20006;-95
2021/08/22 01:46:31;;;;;;;10.10;8.18;;;;;;;12.31;92.60;96478.88;6068120;23;20010;-96
2021/08/22 01:48:59;;;;;;;13.70;7.60;;;;;;;12.26;92.21;96474.81;6068211;23;20013;-96
2021/08/22 01:51:27;;;;;;;9.70;7.68;;;;;;;12.77;92.74;96539.19;6068457;23;20017;-96
2021/08/22 01:53:57;;;;;;;10.25;7.75;;;;;;;12.35;93.09;96481.41;6068301;23;20003;-95
2021/08/22 01:56:23;;;;;;;54.78;10.73;;;;;;;12.57;94.06;96511.81;6068286;23;20007;-95
2021/08/22 01:58:49;;;;;;;8.98;7.90;;;;;;;12.26;92.36;96472.09;6068255;23;20006;-96
2021/08/22 02:01:14;;;;;;;8.32;7.50;;;;;;;12.39;92.81;96492.88;6068171;23;20436;-96
2021/08/22 02:03:50;;;;;;;9.40;7.97;;;;;;;12.71;92.74;96543.03;6068419;23;20009;-96
2021/08/22 02:06:49;;;;;;;8.07;7.35;;;;;;;12.61;92.19;96525.25;6068706;23;20451;-96
2021/08/22 02:09:27;;;;;;;9.75;7.85;;;;;;;12.35;93.32;96486.84;6026497;23;20037;-96
2021/08/22 02:12:02;;;;;;;8.32;7.47;;;;;;;12.27;92.66;96478.31;6072839;23;20010;-96
2021/08/22 02:14:31;;;;;;;10.05;7.65;;;;;;;12.66;92.02;96543.66;6096958;23;20002;-96
2021/08/22 02:16:57;;;;;;;10.20;8.25;;;;;;;12.44;92.51;96501.16;6072903;23;20066;-96
2021/08/22 02:19:26;;;;;;;10.90;7.47;;;;;;;12.61;91.96;96536.88;6073021;23;20065;-96
2021/08/22 02:21:53;;;;;;;9.30;8.00;;;;;;;12.26;91.85;96501.31;6098734;23;20006;-96
2021/08/22 02:24:19;;;;;;;8.32;7.53;;;;;;;12.18;92.91;96486.53;6074800;23;20009;-96
2021/08/22 02:26:45;;;;;;;10.45;8.18;;;;;;;12.19;92.53;96493.47;6075930;23;20010;-96
2021/08/22 02:29:13;;;;;;;9.45;7.70;;;;;;;11.93;92.53;96463.25;6074703;23;20033;-95
2021/08/22 02:31:39;;;;;;;8.68;7.82;;;;;;;11.84;93.20;96438.84;6074718;23;20009;-96
2021/08/22 02:34:04;;;;;;;9.02;8.05;;;;;;;12.10;92.89;96482.66;6074766;23;20002;-96
2021/08/22 02:36:30;;;;;;;10.02;8.32;;;;;;;12.50;93.77;96548.31;6074544;23;20085;-96
2021/08/22 02:38:56;;;;;;;8.57;7.28;;;;;;;11.98;92.46;96473.50;6074663;23;20081;-96
2021/08/22 02:41:22;;;;;;;8.80;7.90;;;;;;;12.50;92.77;96550.28;6074680;23;20115;-96
2021/08/22 02:43:47;;;;;;;8.52;7.65;;;;;;;12.25;92.92;96513.41;6074587;23;20066;-96
2021/08/22 02:46:13;;;;;;;9.13;7.20;;;;;;;11.98;91.64;96474.25;6074785;23;20068;-96
2021/08/22 02:48:39;;;;;;;8.90;7.93;;;;;;;12.51;91.96;96525.31;6074785;23;20006;-96
2021/08/22 02:51:05;;;;;;;9.82;7.95;;;;;;;12.53;91.75;96539.22;6074812;23;20018;-96
2021/08/22 02:53:31;;;;;;;8.75;7.50;;;;;;;11.80;92.48;96445.16;6074682;23;20002;-96
2021/08/22 02:55:57;;;;;;;10.80;7.38;;;;;;;11.87;92.06;96452.25;6074550;23;20065;-96
2021/08/22 03:01:44;;;;;;;8.88;7.72;;;;;;;12.10;91.73;96507.16;6099799;23;20017;-96
2021/08/22 03:04:10;;;;;;;10.15;8.30;;;;;;;11.63;93.10;96432.44;6098463;23;20081;-96
2021/08/22 03:06:36;;;;;;;9.45;8.00;;;;;;;12.02;92.97;96498.59;6074221;23;20359;-94
2021/08/22 03:09:03;;;;;;;9.30;7.38;;;;;;;11.84;92.76;96476.94;6074153;23;20006;-96
2021/08/22 03:11:29;;;;;;;10.77;8.40;;;;;;;12.09;92.67;96511.09;6074289;23;20010;-96
2021/08/22 03:13:55;;;;;;;9.43;7.90;;;;;;;11.87;92.79;96476.75;6074357;23;20436;-96
2021/08/22 03:16:20;;;;;;;9.95;8.15;;;;;;;11.88;93.75;96466.59;6074350;23;20006;-96
2021/08/22 03:18:46;;;;;;;13.02;8.63;;;;;;;12.00;93.62;96490.88;6074248;23;20010;-96
2021/08/22 03:21:12;;;;;;;10.73;7.95;;;;;;;12.02;93.63;96487.69;6074311;23;20085;-96
2021/08/22 03:23:37;;;;;;;10.90;7.80;;;;;;;11.84;93.24;96471.50;6074050;23;20033;-96
2021/08/22 03:26:03;;;;;;;25.33;8.30;;;;;;;11.92;94.35;96481.56;6074526;23;20013;-96
2021/08/22 03:28:29;;;;;;;9.32;8.00;;;;;;;11.98;94.18;96495.28;6074176;23;20013;-96
2021/08/22 03:30:55;;;;;;;8.98;7.60;;;;;;;12.24;93.98;96512.66;6074069;23;20002;-96
2021/08/22 03:33:21;;;;;;;16.95;8.57;;;;;;;11.84;93.91;96447.00;6074021;23;20005;-96
2021/08/22 03:35:47;;;;;;;11.35;7.65;;;;;;;11.90;93.78;96466.91;6074136;23;20081;-96
2021/08/22 03:38:14;;;;;;;9.60;8.18;;;;;;;11.93;93.75;96474.91;6074163;23;20085;-95
2021/08/22 03:40:40;;;;;;;10.43;7.70;;;;;;;12.50;93.27;96542.13;6074648;23;20018;-96
2021/08/22 03:43:05;;;;;;;10.35;8.20;;;;;;;12.14;94.30;96494.13;6074469;23;20328;-96
2021/08/22 03:45:31;;;;;;;10.15;7.72;;;;;;;11.90;94.16;96466.91;6074380;23;20053;-96
2021/08/22 03:47:57;;;;;;;10.25;7.63;;;;;;;12.00;95.03;96488.16;6074482;23;20081;-96
2021/08/22 03:50:22;;;;;;;9.73;7.68;;;;;;;11.75;94.19;96429.47;6074297;23;20017;-96
2021/08/22 03:52:51;;;;;;;10.23;8.32;;;;;;;11.96;93.33;96482.13;6074614;23;20061;-96
2021/08/22 03:55:17;;;;;;;9.43;7.85;;;;;;;11.93;93.65;96472.19;6074233;23;20006;-96
2021/08/22 03:57:42;;;;;;;9.55;8.30;;;;;;;12.12;92.71;96494.59;6073929;23;20010;-96
2021/08/22 04:00:08;;;;;;;9.95;8.32;;;;;;;12.00;93.71;96477.28;6074544;23;20006;-96
2021/08/22 04:02:34;;;;;;;8.68;7.88;;;;;;;11.56;92.90;96428.09;6074470;23;20017;-96
2021/08/22 04:05:01;;;;;;;10.68;8.25;;;;;;;12.19;93.44;96510.56;6074068;23;20066;-96
2021/08/22 04:07:28;;;;;;;8.30;7.47;;;;;;;12.33;92.23;96549.97;6073970;23;20042;-96
2021/08/22 04:09:56;;;;;;;9.55;7.68;;;;;;;11.94;93.68;96484.59;6074873;23;20017;-96
2021/08/22 04:12:22;;;;;;;10.35;7.85;;;;;;;12.22;93.82;96522.50;6098094;23;20036;-96
2021/08/22 04:14:47;;;;;;;9.25;7.40;;;;;;;12.07;93.89;96503.38;6074610;23;20002;-96
2021/08/22 04:17:13;;;;;;;10.63;7.88;;;;;;;11.86;93.27;96477.22;6073826;23;20088;-96
2021/08/22 04:19:41;;;;;;;8.57;7.53;;;;;;;11.46;94.02;96421.19;6074277;23;20003;-96
2021/08/22 04:22:07;;;;;;;8.38;7.43;;;;;;;11.99;93.45;96504.97;6074608;23;20038;-96
2021/08/22 04:24:34;;;;;;;8.77;7.45;;;;;;;11.63;93.13;96451.47;6098415;23;20423;-96
2021/08/22 04:27:01;;;;;;;11.25;7.60;;;;;;;12.03;93.12;96503.56;6073831;23;20006;-96
2021/08/22 04:29:27;;;;;;;9.07;7.72;;;;;;;11.93;93.61;96493.97;6073669;23;20459;-96
2021/08/22 04:31:54;;;;;;;10.80;8.27;;;;;;;12.25;93.99;96533.22;6073553;23;20010;-96
2021/08/22 04:34:19;;;;;;;11.77;8.43;;;;;;;12.14;94.64;96508.47;6073661;23;20380;-96
2021/08/22 04:36:45;;;;;;;10.90;8.07;;;;;;;11.97;93.54;96466.56;6074129;23;20013;-96
2021/08/22 04:39:10;;;;;;;15.23;8.38;;;;;;;12.45;93.85;96540.03;6075204;23;20010;-94
2021/08/22 04:41:36;;;;;;;10.20;8.70;;;;;;;11.92;92.79;96448.16;6074423;23;20018;-96
2021/08/22 04:44:02;;;;;;;9.25;8.30;;;;;;;12.02;92.28;96472.13;6073368;23;20388;-95
2021/08/22 04:46:27;;;;;;;8.98;7.75;;;;;;;12.04;92.46;96466.97;6073423;23;20010;-96
2021/08/22 04:49:01;;;;;;;9.02;8.10;;;;;;;12.14;93.03;96492.13;6076481;23;20016;-96
2021/08/22 04:51:26;;;;;;;9.57;7.85;;;;;;;11.96;92.72;96482.13;6074011;23;20013;-96
2021/08/22 04:53:52;;;;;;;10.20;8.05;;;;;;;11.72;93.46;96427.69;6076307;23;20432;-96
2021/08/22 04:56:17;;;;;;;9.57;7.88;;;;;;;12.61;93.81;96536.13;6074184;23;20009;-96
2021/08/22 04:58:43;;;;;;;10.55;7.43;;;;;;;12.41;92.45;96490.44;6074172;23;20014;-96
2021/08/22 05:01:09;;;;;;;10.07;7.95;;;;;;;12.82;91.75;96533.06;6080734;23;20014;-93
2021/08/22 05:03:34;;;;;;;10.95;7.35;;;;;;;12.24;91.53;96446.53;6082058;23;20458;-96
2021/08/22 05:06:00;;;;;;;12.50;7.57;;;;;;;12.53;91.14;96492.91;6083622;23;20033;-96
2021/08/22 05:08:26;;;;;;;9.38;8.00;;;;;;;12.32;90.68;96448.44;6082994;23;20041;-96
2021/08/22 05:10:53;;;;;;;9.05;7.63;;;;;;;12.32;90.60;96466.75;6086673;23;20010;-96
2021/08/22 05:13:19;;;;;;;8.73;7.82;;;;;;;12.48;91.60;96479.94;6108093;23;20010;-96
2021/08/22 05:15:45;;;;;;;9.80;7.57;;;;;;;12.92;91.54;96538.44;6073283;23;20017;-96
2021/08/22 05:18:11;;;;;;;8.75;7.85;;;;;;;12.58;90.81;96484.09;6073039;23;20037;-96
2021/08/22 05:20:36;;;;;;;13.85;7.90;;;;;;;12.86;90.96;96513.81;6073225;23;20010;-96
2021/08/22 05:23:02;;;;;;;10.20;7.97;;;;;;;13.09;90.95;96528.59;6079351;23;20094;-96
2021/08/22 05:25:28;;;;;;;12.63;8.68;;;;;;;12.51;91.24;96462.66;6079854;23;20069;-96
2021/08/22 05:27:53;;;;;;;9.93;8.50;;;;;;;12.82;91.19;96500.38;6073430;23;20091;-96
2021/08/22 05:30:19;;;;;;;10.23;9.23;;;;;;;12.98;91.05;96507.34;6079508;23;20420;-96
2021/08/22 05:32:44;;;;;;;13.82;9.52;;;;;;;13.29;91.06;96544.31;6079176;23;20006;-95
2021/08/22 05:35:10;;;;;;;11.80;9.88;;;;;;;13.14;91.16;96529.91;6077991;23;20089;-96
2021/08/22 05:37:36;;;;;;;11.65;9.90;;;;;;;13.38;90.69;96540.75;6077926;23;20029;-95
2021/08/22 05:40:04;;;;;;;12.70;10.38;;;;;;;13.19;90.88;96508.19;6078543;23;20089;-96
2021/08/22 05:42:29;;;;;;;13.30;9.80;;;;;;;13.27;91.14;96516.78;6072502;23;20065;-96
2021/08/22 05:44:55;;;;;;;10.35;8.70;;;;;;;13.26;90.37;96507.06;6076571;23;20010;-96
2021/08/22 05:47:21;;;;;;;13.23;9.18;;;;;;;13.17;91.17;96479.91;6085449;23;20045;-96
2021/08/22 05:49:56;;;;;;;10.32;9.23;;;;;;;13.52;91.19;96518.91;6081624;23;20097;-96
2021/08/22 05:52:22;;;;;;;10.00;8.95;;;;;;;13.30;91.21;96472.94;6083329;23;20013;-96
2021/08/22 06:17:10;;;;;;;13.20;11.38;;;;;;;14.01;91.65;96525.56;6104557;23;20026;-89
2021/08/22 06:19:36;;;;;;;19.30;12.57;;;;;;;14.13;91.52;96532.69;6081269;23;20042;-89
2021/08/22 06:22:05;;;;;;;16.33;12.25;;;;;;;14.04;91.00;96502.75;6099479;23;20003;-89
2021/08/22 06:24:32;;;;;;;18.35;12.63;;;;;;;14.21;90.81;96519.34;6101682;23;20009;-90
2021/08/22 06:26:59;;;;;;;16.30;12.30;;;;;;;14.28;90.99;96518.97;6076163;23;20006;-88
2021/08/22 06:29:24;;;;;;;16.05;12.45;;;;;;;14.27;92.30;96514.72;6107689;23;20003;-90
2021/08/22 06:31:50;;;;;;;14.98;11.75;;;;;;;14.33;90.91;96510.09;6106660;23;20506;-88
2021/08/22 06:34:16;;;;;;;14.98;12.13;;;;;;;14.28;91.23;96505.31;6103807;23;20005;-89
2021/08/22 06:36:42;;;;;;;16.98;12.32;;;;;;;14.34;91.81;96508.84;6093874;23;20482;-90
2021/08/22 06:39:08;;;;;;;21.95;12.88;;;;;;;14.51;91.64;96521.97;6096055;23;20085;-89
2021/08/22 06:41:34;;;;;;;16.20;11.88;;;;;;;14.52;90.94;96512.56;6072499;23;20086;-89
2021/08/22 06:44:00;;;;;;;14.23;11.70;;;;;;;14.46;90.23;96498.78;6072393;23;20013;-87
2021/08/22 06:46:26;;;;;;;14.02;10.90;;;;;;;14.65;90.18;96516.44;6095631;23;20038;-89
2021/08/22 06:48:51;;;;;;;15.70;10.60;;;;;;;14.64;89.89;96503.97;6072770;23;20013;-90
2021/08/22 06:51:17;;;;;;;13.70;11.15;;;;;;;14.71;89.42;96491.16;6072331;23;20037;-89
2021/08/22 06:53:43;;;;;;;12.02;10.73;;;;;;;14.79;90.25;96508.63;6072235;23;20011;-89
2021/08/22 06:56:08;;;;;;;19.55;11.35;;;;;;;14.78;89.24;96499.66;6096309;23;20002;-89
2021/08/22 06:58:33;;;;;;;12.43;10.82;;;;;;;14.99;89.94;96511.31;6096361;23;20003;-89
2021/08/22 07:00:59;;;;;;;14.95;10.65;;;;;;;14.87;89.46;96490.56;6072358;23;20002;-88
2021/08/22 07:03:24;;;;;;;12.05;10.32;;;;;;;15.02;89.74;96499.41;6096567;23;20010;-90
2021/08/22 07:05:50;;;;;;;11.57;10.40;;;;;;;15.05;89.61;96501.16;6072558;23;20006;-89
2021/08/22 07:08:15;;;;;;;12.68;11.23;;;;;;;15.20;89.75;96501.78;6074226;23;20006;-89
2021/08/22 07:10:42;;;;;;;15.13;10.98;;;;;;;15.18;88.85;96501.53;6074251;23;20465;-91
2021/08/22 07:13:07;;;;;;;14.25;10.57;;;;;;;15.14;88.83;96484.59;6074036;23;20021;-90
2021/08/22 07:15:34;;;;;;;12.32;10.27;;;;;;;15.34;89.43;96502.91;6074102;23;20006;-89
2021/08/22 07:18:00;;;;;;;12.88;10.38;;;;;;;15.46;89.32;96518.16;6069390;23;20105;-89
2021/08/22 07:20:25;;;;;;;11.43;10.23;;;;;;;15.39;88.93;96494.00;6069236;23;20027;-90
2021/08/22 07:22:51;;;;;;;12.57;10.52;;;;;;;15.43;88.71;96482.81;6069248;23;20049;-89
2021/08/22 07:25:18;;;;;;;11.85;10.27;;;;;;;15.60;88.26;96493.88;6069071;23;20007;-89
2021/08/22 07:27:43;;;;;;;13.30;10.73;;;;;;;15.67;88.18;96502.44;6069224;23;20016;-90
2021/08/22 07:30:09;;;;;;;11.65;10.45;;;;;;;15.90;87.71;96513.50;6069312;23;20010;-90
2021/08/22 07:32:35;;;;;;;10.10;9.10;;;;;;;15.88;87.22;96496.84;6069045;23;20086;-89
2021/08/22 07:35:00;;;;;;;11.05;9.40;;;;;;;16.02;86.96;96495.91;6069212;23;20003;-90
2021/08/22 07:37:26;;;;;;;11.45;10.35;;;;;;;15.87;87.20;96476.16;6069184;23;20007;-90
2021/08/22 07:39:51;;;;;;;11.13;10.00;;;;;;;16.07;86.35;96486.97;6069381;23;20010;-90
2021/08/22 07:42:17;;;;;;;11.13;9.95;;;;;;;16.09;86.99;96473.53;6069188;23;20021;-90
2021/08/22 07:44:42;;;;;;;10.77;9.77;;;;;;;16.24;87.49;96490.53;6068989;23;20007;-90
2021/08/22 07:47:08;;;;;;;12.52;11.23;;;;;;;16.24;86.83;96487.81;6069292;23;20049;-90
2021/08/22 07:49:33;;;;;;;12.88;10.88;;;;;;;16.13;86.04;96459.59;6069021;23;20010;-89
2021/08/22 07:52:00;;;;;;;11.82;10.68;;;;;;;16.41;85.66;96479.63;6068947;23;20029;-90
2021/08/22 07:54:26;;;;;;;10.82;9.73;;;;;;;16.55;86.09;96485.41;6068653;23;20003;-89
2021/08/22 07:56:51;;;;;;;11.95;10.75;;;;;;;16.55;85.88;96482.66;6069021;23;20014;-90
2021/08/22 07:59:17;;;;;;;13.15;10.30;;;;;;;16.63;85.55;96473.47;6068894;23;20014;-88
2021/08/22 08:01:42;;;;;;;10.98;9.77;;;;;;;16.89;85.10;96489.75;6068803;23;20045;-89
2021/08/22 08:04:08;;;;;;;10.18;9.18;;;;;;;17.00;84.93;96495.25;6068871;23;20003;-89
2021/08/22 08:06:34;;;;;;;10.05;9.05;;;;;;;16.83;84.54;96452.56;6068719;23;20005;-89
2021/08/22 08:09:00;;;;;;;9.23;8.30;;;;;;;17.26;83.79;96495.03;6068724;23;20457;-89
2021/08/22 08:11:26;;;;;;;9.93;8.30;;;;;;;17.15;84.06;96458.59;6068736;23;20014;-89
2021/08/22 08:13:51;;;;;;;8.93;8.13;;;;;;;17.38;81.87;96486.78;6068971;23;20427;-89
2021/08/22 08:16:18;;;;;;;9.85;8.85;;;;;;;17.23;81.67;96451.34;6069051;23;20006;-89
2021/08/22 08:18:44;;;;;;;11.98;8.48;;;;;;;17.51;80.97;96476.78;6068285;23;20023;-91
2021/08/22 08:21:09;;;;;;;10.57;8.57;;;;;;;17.58;80.87;96472.81;6068451;23;20351;-90
2021/08/22 08:23:34;;;;;;;8.77;7.70;;;;;;;17.67;100.00;68426.72;6068354;23;20011;-89
2021/08/22 08:26:00;;;;;;;8.95;8.02;;;;;;;17.67;80.29;96464.28;6068682;23;20011;-89
2021/08/22 08:28:26;;;;;;;9.98;9.05;;;;;;;17.71;79.37;96444.81;6068262;23;20011;-90
2021/08/22 08:30:51;;;;;;;9.05;7.95;;;;;;;17.71;79.37;96444.81;6069356;23;20007;-91
2021/08/22 08:33:17;;;;;;;8.75;7.88;;;;;;;18.00;100.00;88806.00;6068423;23;20021;-90
2021/08/22 08:35:42;;;;;;;8.63;7.63;;;;;;;18.11;100.00;68426.72;6068580;23;20010;-89
2021/08/22 08:38:08;;;;;;;10.35;7.70;;;;;;;18.11;77.90;96473.69;6068755;23;20011;-89
2021/08/22 08:40:34;;;;;;;8.75;7.68;;;;;;;18.31;77.96;96473.34;6068768;23;20368;-89
2021/08/22 08:43:05;;;;;;;10.60;8.15;;;;;;;18.31;77.96;96473.34;6068564;23;20011;-89
2021/08/22 08:45:52;;;;;;;9.68;7.97;;;;;;;18.31;77.96;96473.34;6065518;23;20007;-89
2021/08/22 08:48:26;;;;;;;8.43;7.63;;;;;;;18.31;77.96;96473.34;6068234;23;20007;-90
2021/08/22 08:51:03;;;;;;;8.88;7.65;;;;;;;18.31;77.96;96473.34;6068465;23;20002;-89
2021/08/22 08:53:49;;;;;;;8.60;7.63;;;;;;;18.61;76.50;96453.47;6068092;23;20109;-89
2021/08/22 08:56:29;;;;;;;7.55;6.78;;;;;;;18.64;100.00;88892.44;6068490;23;20350;-89
2021/08/22 08:58:55;;;;;;;8.17;6.33;;;;;;;-145.61;100.00;68426.72;6070067;23;20478;-88
2021/08/22 09:01:20;;;;;;;8.27;7.43;;;;;;;18.55;75.41;96423.25;6068481;23;20041;-90
2021/08/22 09:04:37;;;;;;;7.07;6.38;;;;;;;18.92;100.00;96459.81;6068183;23;20070;-92
2021/08/22 09:07:40;;;;;;;6.68;6.07;;;;;;;19.00;74.80;96458.75;6044924;23;20380;-91
2021/08/22 09:10:43;;;;;;;7.70;6.97;;;;;;;19.09;74.46;96458.44;6068284;23;20331;-91
2021/08/22 09:13:27;;;;;;;7.00;6.10;;;;;;;19.21;74.18;96453.56;6068098;23;20066;-91
2021/08/22 09:16:24;;;;;;;8.68;6.72;;;;;;;19.30;73.86;96449.75;6067939;23;20010;-91
2021/08/22 09:19:26;;;;;;;7.90;6.25;;;;;;;19.42;72.54;96447.66;6068041;23;20436;-91
2021/08/22 09:22:21;;;;;;;6.50;5.90;;;;;;;19.22;71.83;96408.28;6068268;23;20431;-92
2021/08/22 09:25:24;;;;;;;6.15;5.55;;;;;;;19.60;72.47;96450.53;6074080;23;20011;-91
2021/08/22 09:28:27;;;;;;;7.65;6.28;;;;;;;19.70;70.31;96453.66;6068290;23;20343;-91
2021/08/22 09:31:30;;;;;;;7.45;6.22;;;;;;;19.78;69.49;96449.06;6068139;23;20007;-91
2021/08/22 09:34:33;;;;;;;8.20;5.97;;;;;;;19.89;68.92;96450.97;6068197;23;20113;-91
2021/08/22 09:37:09;;;;;;;6.50;5.80;;;;;;;19.99;69.23;96448.59;6067981;23;20014;-92
2021/08/22 09:39:53;;;;;;;7.47;5.72;;;;;;;20.08;68.79;96439.97;6067931;23;20010;-90
2021/08/22 09:42:47;;;;;;;5.10;4.57;;;;;;;20.23;67.86;96442.31;6068303;23;20062;-91
2021/08/22 09:45:34;;;;;;;7.28;5.45;;;;;;;20.29;68.54;96449.22;6067917;23;20011;-92
2021/08/22 09:48:36;;;;;;;7.75;5.75;;;;;;;20.26;68.86;96435.75;6068056;23;20371;-91
2021/08/22 09:51:09;;;;;;;6.47;5.20;;;;;;;20.25;68.12;96439.78;6067880;23;20007;-91
2021/08/22 09:54:08;;;;;;;8.50;6.05;;;;;;;20.23;70.48;96445.81;6068127;23;20007;-90
2021/08/22 09:56:58;;;;;;;7.50;5.65;;;;;;;20.40;70.91;96429.81;6067994;23;20009;-91
2021/08/22 09:59:35;;;;;;;7.07;5.40;;;;;;;20.37;71.51;96439.13;6067930;23;20006;-91
2021/08/22 10:02:35;;;;;;;5.72;5.13;;;;;;;20.36;72.54;96429.34;6068057;23;20462;-92
2021/08/22 10:05:28;;;;;;;6.63;5.50;;;;;;;20.20;69.86;96413.78;6079346;23;20010;-91
2021/08/22 10:07:59;;;;;;;5.22;4.72;;;;;;;20.34;68.84;96426.34;6053349;23;20011;-91
2021/08/22 10:10:26;;;;;;;6.03;4.85;;;;;;;20.33;62.62;96424.13;6067910;23;20034;-91
2021/08/22 10:12:51;;;;;;;5.65;4.10;;;;;;;20.28;65.49;96411.16;6067831;23;20038;-91
2021/08/22 10:15:21;;;;;;;4.47;4.07;;;;;;;20.44;67.39;96428.75;6067948;23;20442;-91
2021/08/22 10:17:48;;;;;;;6.70;4.57;;;;;;;20.47;69.50;96427.75;6067477;23;20041;-90
2021/08/22 10:20:17;;;;;;;5.90;4.35;;;;;;;20.27;63.13;96382.84;6067584;23;20011;-90
2021/08/22 10:22:43;;;;;;;5.77;4.47;;;;;;;20.34;68.69;96393.28;6067694;23;20007;-91
2021/08/22 10:25:18;;;;;;;4.85;4.40;;;;;;;20.55;65.00;96409.31;6067710;23;20029;-91
2021/08/22 10:27:52;;;;;;;6.30;4.78;;;;;;;20.23;70.50;96359.59;6067934;23;20101;-92
2021/08/22 10:30:22;;;;;;;4.97;4.20;;;;;;;20.49;69.37;96383.84;6067742;23;20010;-91
2021/08/22 10:32:57;;;;;;;6.82;4.47;;;;;;;20.69;68.56;96405.34;6067668;23;20014;-92
2021/08/22 10:35:24;;;;;;;5.22;4.30;;;;;;;20.60;67.76;96392.69;6067784;23;20335;-91
2021/08/22 10:37:50;;;;;;;5.70;4.10;;;;;;;20.80;67.84;96407.22;6067777;23;20026;-91
2021/08/22 10:40:21;;;;;;;5.53;3.97;;;;;;;20.90;61.73;96408.31;6067837;23;20011;-90
2021/08/22 10:42:47;;;;;;;5.05;4.15;;;;;;;20.82;65.35;96377.06;6069481;23;20018;-91
2021/08/22 10:45:42;;;;;;;6.13;3.78;;;;;;;20.97;57.63;96376.59;6069504;23;20427;-91
2021/08/22 10:48:08;;;;;;;4.72;3.70;;;;;;;20.93;64.69;96394.22;6069669;23;20258;-91
2021/08/22 10:51:04;;;;;;;4.75;3.60;;;;;;;21.06;64.39;96407.28;6069281;23;20498;-91
2021/08/22 10:53:30;;;;;;;5.03;3.80;;;;;;;21.15;66.30;96414.44;6069543;23;20010;-91
2021/08/22 10:55:57;;;;;;;4.05;3.42;;;;;;;20.93;64.10;96374.88;6068031;23;20427;-91
2021/08/22 10:58:57;;;;;;;4.25;3.15;;;;;;;21.21;61.19;96408.81;6069608;23;20106;-91
2021/08/22 11:01:25;;;;;;;3.17;2.95;;;;;;;21.15;58.01;96376.53;6069501;23;20003;-91
2021/08/22 11:04:06;;;;;;;3.42;3.05;;;;;;;21.09;59.59;96369.59;6069221;23;20030;-90
2021/08/22 11:06:33;;;;;;;4.85;3.40;;;;;;;21.15;64.36;96350.94;6069393;23;20014;-91
2021/08/22 11:08:59;;;;;;;4.07;3.50;;;;;;;21.40;64.34;96376.38;6069338;23;20091;-91
2021/08/22 11:11:24;;;;;;;3.75;3.38;;;;;;;21.39;65.58;96377.66;6069245;23;20423;-92
2021/08/22 11:13:55;;;;;;;3.65;3.33;;;;;;;21.49;59.43;96394.56;6069430;23;20003;-91
2021/08/22 11:16:21;;;;;;;4.00;3.50;;;;;;;21.46;57.58;96390.81;6069324;23;20014;-90
2021/08/22 11:18:47;;;;;;;4.38;3.85;;;;;;;21.58;58.30;96350.69;6068627;23;20075;-90
2021/08/22 11:21:13;;;;;;;5.95;3.63;;;;;;;22.08;57.28;96370.28;6069276;23;20041;-90
2021/08/22 11:23:39;;;;;;;5.40;3.25;;;;;;;22.02;56.07;96358.59;6068995;23;20066;-90
2021/08/22 11:26:07;;;;;;;3.83;3.20;;;;;;;22.00;57.45;96358.38;6069153;23;20002;-90
2021/08/22 11:28:33;;;;;;;4.00;2.92;;;;;;;22.34;55.55;96381.31;6069279;23;20116;-91
2021/08/22 11:30:59;;;;;;;3.63;3.30;;;;;;;22.36;54.40;96362.16;6068891;23;20010;-90
2021/08/22 11:33:29;;;;;;;4.03;3.00;;;;;;;22.24;54.83;96338.81;6069256;23;20015;-91
2021/08/22 11:35:55;;;;;;;3.20;2.90;;;;;;;22.51;56.96;96355.31;6069332;23;20025;-91
2021/08/22 11:38:20;;;;;;;3.85;3.00;;;;;;;22.61;56.90;96359.09;6069006;23;20342;-89
2021/08/22 11:40:46;;;;;;;3.33;3.03;;;;;;;22.45;54.08;96358.94;6069317;23;20026;-91
2021/08/22 11:43:13;;;;;;;5.82;3.10;;;;;;;22.58;60.28;96352.59;6069315;23;20328;-91
2021/08/22 11:45:44;;;;;;;3.47;3.17;;;;;;;22.69;59.45;96359.91;6068796;23;20007;-91
2021/08/22 11:48:18;;;;;;;4.72;3.30;;;;;;;22.94;57.97;96358.31;6068933;23;20101;-90
2021/08/22 11:50:45;;;;;;;3.40;3.10;;;;;;;22.87;51.84;96367.28;6069128;23;20006;-90
2021/08/22 11:53:11;;;;;;;3.13;2.63;;;;;;;22.98;55.76;96364.28;6069072;23;20010;-91
2021/08/22 11:55:39;;;;;;;3.00;2.70;;;;;;;23.03;54.51;96356.38;6069038;23;20086;-91
2021/08/22 11:58:16;;;;;;;3.30;3.00;;;;;;;22.93;58.08;96372.72;6068875;23;20007;-91
2021/08/22 12:00:47;;;;;;;5.75;2.97;;;;;;;23.06;56.26;96358.03;6068967;23;20010;-90
2021/08/22 12:03:20;;;;;;;3.92;2.88;;;;;;;23.36;54.35;96374.91;6068833;23;20029;-88
2021/08/22 12:05:53;;;;;;;4.10;2.60;;;;;;;23.32;52.43;96366.19;6069134;23;20009;-93
2021/08/22 12:08:19;;;;;;;4.78;2.85;;;;;;;22.87;52.84;96339.59;6068165;23;20007;-91